McConnell AFB, Kansas
Current Conditions -  °F | °C
As of 12:54 PM on Tuesday 21 Oct 2014 (Local Time) from KWLD Reporting Station
Clear Clear  
Wind Chill: 75°   Ceiling: Unl
Heat Index: 75°   Visibility: 10mi
Dew Point: 58°   Wind: 12mph
Humidity: 55%   Direction: 120°ESE
Pressure: 30.09"   Gusts: NA
Location:  37.38°N, 97.15°W
Report Text: KWLD 211754Z AUTO 12010KT 10SM CLR 24/14 A3009 RMK AO2 SLP184 T02390144 10244 20117 58010
Loading
Personal Weather Stations






























Interactive Weather Map New forecast layout! Learn more

10-Day Weather Forecast

Advertisements
Track Severe Weather on mobile